Time;durP1;ratioP1;P1;durP2;ratioP2;P2;SDS_P1;SDS_P2;PMS_P1;PMS_P2;Temp;Humidity;BMP_temperature;BMP_pressure;BME280_temperature;BME280_humidity;BME280_pressure;Samples;Min_cycle;Max_cycle;Signal;HPM_P1;HPM_P2
2022/05/16 00:01:13;;;;;;;7.23;3.07;;;;;;;;;;5039021;28;20194;-84
2022/05/16 00:03:38;;;;;;;4.43;2.40;;;9.20;99.90;;;;;;5073296;28;20638;-84
2022/05/16 00:06:04;;;;;;;3.63;2.47;;;9.00;99.90;;;;;;5055655;28;20260;-83
2022/05/16 00:08:31;;;;;;;3.93;2.27;;;;;;;;;;5073773;28;20510;-84
2022/05/16 00:10:57;;;;;;;4.67;3.03;;;8.70;99.90;;;;;;5073645;28;20175;-84
2022/05/16 00:13:25;;;;;;;4.53;2.63;;;;;;;;;;5038838;28;20183;-84
2022/05/16 00:15:51;;;;;;;4.03;2.43;;;;;;;;;;5038921;28;20187;-83
2022/05/16 00:18:18;;;;;;;3.53;2.33;;;;;;;;;;5054541;28;20186;-84
2022/05/16 00:20:44;;;;;;;3.40;2.40;;;;;;;;;;5055028;28;20179;-84
2022/05/16 00:23:10;;;;;;;2.27;1.77;;;;;;;;;;5055278;28;20274;-84
2022/05/16 00:25:36;;;;;;;5.10;3.27;;;;;;;;;;5054837;28;20206;-84
2022/05/16 00:28:03;;;;;;;6.37;2.37;;;;;;;;;;5038689;28;20277;-84
2022/05/16 00:30:30;;;;;;;4.23;2.17;;;;;;;;;;5055117;28;20650;-84
2022/05/16 00:32:56;;;;;;;3.67;2.27;;;;;;;;;;5054908;28;20183;-84
2022/05/16 00:35:23;;;;;;;6.93;2.67;;;;;;;;;;5072804;28;20183;-84
2022/05/16 00:37:49;;;;;;;4.63;2.37;;;;;;;;;;5054818;28;20232;-84
2022/05/16 00:40:16;;;;;;;4.20;2.27;;;8.30;99.90;;;;;;5055265;28;20191;-84
2022/05/16 00:42:43;;;;;;;2.70;2.07;;;;;;;;;;5072519;28;20179;-85
2022/05/16 00:45:12;;;;;;;3.40;2.43;;;8.30;99.90;;;;;;5055007;28;20310;-84
2022/05/16 00:47:38;;;;;;;3.90;3.20;;;;;;;;;;5072955;28;20258;-85
2022/05/16 00:50:05;;;;;;;4.33;2.40;;;8.20;99.90;;;;;;5038473;28;20277;-84
2022/05/16 00:52:36;;;;;;;2.77;2.20;;;8.20;99.90;;;;;;5038461;28;20183;-84
2022/05/16 00:55:14;;;;;;;5.73;2.53;;;8.20;99.90;;;;;;5055234;28;20639;-84
2022/05/16 00:57:48;;;;;;;3.50;2.47;;;8.20;99.90;;;;;;5054670;28;20183;-85
2022/05/16 01:00:22;;;;;;;4.00;2.13;;;7.70;99.90;;;;;;5054951;28;20187;-84
2022/05/16 01:05:37;;;;;;;3.30;2.17;;;;;;;;;;5072576;28;20249;-85
2022/05/16 01:08:07;;;;;;;2.40;2.10;;;8.10;99.90;;;;;;5072860;28;20183;-84
2022/05/16 01:10:33;;;;;;;4.47;1.83;;;;;;;;;;5054939;28;20175;-84
2022/05/16 01:13:00;;;;;;;3.70;2.20;;;;;;;;;;5072194;28;20180;-83
2022/05/16 01:15:36;;;;;;;4.67;2.70;;;7.60;99.90;;;;;;5054771;28;20634;-84
2022/05/16 01:18:02;;;;;;;3.57;2.53;;;;;;;;;;5054475;28;20186;-84
2022/05/16 01:20:39;;;;;;;2.83;2.23;;;8.00;99.90;;;;;;5037868;28;20183;-84
2022/05/16 01:23:05;;;;;;;7.13;2.00;;;;;;;;;;5054807;28;20542;-84
2022/05/16 01:25:31;;;;;;;3.63;2.20;;;;;;;;;;5054633;28;20636;-83
2022/05/16 01:28:04;;;;;;;3.77;2.80;;;8.00;99.90;;;;;;5054553;28;20226;-83
2022/05/16 01:30:51;;;;;;;2.37;2.00;;;8.00;99.90;;;;;;5056515;28;20247;-83
2022/05/16 01:33:18;;;;;;;2.80;2.20;;;7.90;99.90;;;;;;5075910;28;20179;-83
2022/05/16 01:35:45;;;;;;;2.27;2.07;;;;;;;;;;5041492;28;20191;-84
2022/05/16 01:38:26;;;;;;;4.70;2.47;;;;;;;;;;5058265;28;20517;-83
2022/05/16 01:41:01;;;;;;;3.77;2.60;;;7.50;99.90;;;;;;5043405;28;20195;-84
2022/05/16 01:43:30;;;;;;;4.33;2.67;;;8.00;99.90;;;;;;5076486;28;20171;-84
2022/05/16 01:45:56;;;;;;;3.40;2.83;;;;;;;;;;5075684;28;20203;-84
2022/05/16 01:48:23;;;;;;;9.07;2.97;;;8.00;99.90;;;;;;5057997;28;20232;-84
2022/05/16 01:50:50;;;;;;;6.40;3.00;;;8.10;99.90;;;;;;5057730;28;20281;-84
2022/05/16 01:53:18;;;;;;;3.07;2.60;;;8.10;99.90;;;;;;5057794;28;20180;-84
2022/05/16 01:55:44;;;;;;;3.53;3.00;;;;;;;;;;5041005;28;20212;-85
2022/05/16 01:58:10;;;;;;;3.33;2.40;;;;;;;;;;5075547;28;20186;-84
2022/05/16 02:00:37;;;;;;;2.47;2.03;;;8.30;99.90;;;;;;5057847;28;20186;-84
2022/05/16 02:03:05;;;;;;;4.93;2.33;;;;;;;;;;5057873;28;21079;-84
2022/05/16 02:05:31;;;;;;;3.87;3.00;;;;;;;;;;5057628;28;20210;-84
2022/05/16 02:07:57;;;;;;;5.43;2.20;;;;;;;;;;5040946;28;20191;-83
2022/05/16 02:10:25;;;;;;;5.27;2.87;;;8.30;99.90;;;;;;5041340;28;20709;-83
2022/05/16 02:12:52;;;;;;;3.10;2.30;;;8.40;99.90;;;;;;5057351;28;20179;-84
2022/05/16 02:15:21;;;;;;;3.63;2.20;;;8.30;99.90;;;;;;5057294;28;20217;-83
2022/05/16 02:17:47;;;;;;;3.53;2.27;;;;;;;;;;5075276;28;20179;-84
2022/05/16 02:20:14;;;;;;;2.57;2.10;;;8.30;99.90;;;;;;5075213;28;20233;-83
2022/05/16 02:25:25;;;;;;;2.80;2.50;;;;;;;;;;5075121;28;20233;-84
2022/05/16 02:27:51;;;;;;;4.30;2.37;;;8.20;99.90;;;;;;5040548;28;20187;-84
2022/05/16 02:30:20;;;;;;;3.67;2.50;;;8.10;99.90;;;;;;5040691;28;20197;-84
2022/05/16 02:32:46;;;;;;;4.63;2.20;;;;;;;;;;5056983;28;20218;-84
2022/05/16 02:35:12;;;;;;;4.10;2.77;;;;;;;;;;5057212;28;20183;-84
2022/05/16 02:37:38;;;;;;;3.03;2.30;;;8.50;99.90;;;;;;5040607;28;20190;-84
2022/05/16 02:40:05;;;;;;;5.00;2.97;;;7.70;99.90;;;;;;5056950;28;20186;-83
2022/05/16 02:42:31;;;;;;;6.03;2.50;;;;;;;;;;5039482;28;20186;-84
2022/05/16 02:44:57;;;;;;;3.50;2.23;;;;;;;;;;5041322;28;20206;-83
2022/05/16 02:47:23;;;;;;;2.27;2.03;;;;;;;;;;5057659;28;20183;-83
2022/05/16 02:49:50;;;;;;;3.73;2.50;;;;;;;;;;5057474;28;20518;-84
2022/05/16 02:52:16;;;;;;;3.30;2.47;;;;;;;;;;5075292;28;20245;-84
2022/05/16 02:54:41;;;;;;;2.60;2.30;;;8.10;99.90;;;;;;5058181;28;20195;-83
2022/05/16 02:57:08;;;;;;;4.97;2.83;;;8.00;99.90;;;;;;5057470;28;20171;-84
2022/05/16 02:59:35;;;;;;;6.07;3.33;;;8.00;99.90;;;;;;5057464;28;20191;-83
2022/05/16 03:02:06;;;;;;;4.80;2.63;;;8.10;99.90;;;;;;5039123;28;20239;-84
2022/05/16 03:04:33;;;;;;;5.60;3.10;;;8.10;99.90;;;;;;5056282;28;20294;-84
2022/05/16 03:06:59;;;;;;;5.03;3.43;;;;;;;;;;5053768;28;20191;-83
2022/05/16 03:09:26;;;;;;;3.50;2.07;;;8.10;99.90;;;;;;5054502;28;20180;-83
2022/05/16 03:11:52;;;;;;;6.23;2.93;;;;;;;;;;5055598;28;20183;-84
2022/05/16 03:14:21;;;;;;;3.60;2.67;;;8.20;99.90;;;;;;5057019;28;20211;-84
2022/05/16 03:16:47;;;;;;;4.17;3.10;;;;;;;;;;5056975;28;20212;-83
2022/05/16 03:19:14;;;;;;;3.43;2.73;;;;;;;;;;5057346;28;20176;-83
2022/05/16 03:21:40;;;;;;;6.43;3.23;;;;;;;;;;5059754;28;20176;-83
2022/05/16 03:24:08;;;;;;;5.40;3.63;;;8.20;99.90;;;;;;5041225;28;20184;-83
2022/05/16 03:26:34;;;;;;;5.27;2.80;;;;;;;;;;5054996;28;20279;-83
2022/05/16 03:29:00;;;;;;;4.93;2.63;;;;;;;;;;5055764;28;20238;-84
2022/05/16 03:31:26;;;;;;;3.77;2.77;;;;;;;;;;5056513;28;20186;-83
2022/05/16 03:33:52;;;;;;;4.40;2.47;;;;;;;;;;5040533;28;20668;-83
2022/05/16 03:36:18;;;;;;;4.87;3.13;;;;;;;;;;5059737;28;20180;-83
2022/05/16 03:41:28;;;;;;;5.57;2.10;;;;;;;;;;5040340;28;20179;-81
2022/05/16 03:43:57;;;;;;;4.10;2.23;;;;;;;;;;5053946;28;20687;-86
2022/05/16 03:46:24;;;;;;;5.93;3.10;;;;;;;;;;5037705;28;20235;-83
2022/05/16 03:48:50;;;;;;;4.47;2.27;;;;;;;;;;5054985;28;20168;-84
2022/05/16 03:51:16;;;;;;;4.10;3.00;;;;;;;;;;5052215;28;20188;-84
2022/05/16 03:53:48;;;;;;;10.43;3.27;;;;;;;;;;5036242;28;20287;-85
2022/05/16 03:56:19;;;;;;;3.30;2.70;;;8.70;99.90;;;;;;5052289;28;20186;-84
2022/05/16 03:58:45;;;;;;;3.00;2.40;;;;;;;;;;5052582;28;20253;-85
2022/05/16 04:01:11;;;;;;;4.67;3.43;;;;;;;;;;5038139;28;20184;-84
2022/05/16 04:03:40;;;;;;;4.13;3.57;;;8.90;99.90;;;;;;5073697;28;20608;-84
2022/05/16 04:06:07;;;;;;;6.07;2.97;;;8.90;99.90;;;;;;5073322;28;20203;-85
2022/05/16 04:08:33;;;;;;;4.27;3.33;;;;;;;;;;5055537;28;20297;-85
2022/05/16 04:11:00;;;;;;;9.13;3.80;;;9.30;99.90;;;;;;5038648;28;20218;-85
2022/05/16 04:13:26;;;;;;;4.67;2.87;;;;;;;;;;5073653;28;20721;-84
2022/05/16 04:15:52;;;;;;;4.77;3.47;;;;;;;;;;5073139;28;20258;-84
2022/05/16 04:18:19;;;;;;;5.37;2.60;;;;;;;;;;5055128;28;20620;-84
2022/05/16 04:20:45;;;;;;;3.37;2.50;;;;;;;;;;5055579;28;20184;-84
2022/05/16 04:23:11;;;;;;;4.97;3.40;;;9.30;99.90;;;;;;5055144;28;20559;-84
2022/05/16 04:25:39;;;;;;;5.23;3.37;;;;;;;;;;5039424;28;20206;-84
2022/05/16 04:28:10;;;;;;;2.67;2.30;;;10.00;99.90;;;;;;5038866;28;20640;-85
2022/05/16 04:30:37;;;;;;;7.73;4.13;;;10.10;99.90;;;;;;5055163;28;20272;-84
2022/05/16 04:33:03;;;;;;;8.93;3.23;;;10.50;99.90;;;;;;5055192;28;20175;-85
2022/05/16 04:35:28;;;;;;;3.20;2.27;;;10.20;99.90;;;;;;5022499;28;20266;-84
2022/05/16 04:37:54;;;;;;;5.50;2.67;;;;;;;;;;5059167;28;20269;-84
2022/05/16 04:40:21;;;;;;;6.78;2.92;;;;;;;;;;5074321;28;20183;-84
2022/05/16 04:42:48;;;;;;;7.20;3.23;;;;;;;;;;5074783;28;20190;-84
2022/05/16 04:45:23;;;;;;;5.30;3.10;;;11.20;99.90;;;;;;5092692;28;20285;-85
2022/05/16 04:47:52;;;;;;;4.38;2.83;;;11.00;99.90;;;;;;5075114;28;20205;-84
2022/05/16 04:50:22;;;;;;;2.97;2.27;;;11.10;99.90;;;;;;5058113;28;20190;-85
2022/05/16 04:52:48;;;;;;;3.33;2.27;;;;;;;;;;5054964;28;20278;-84
2022/05/16 04:55:17;;;;;;;5.30;3.17;;;11.40;99.90;;;;;;5054380;28;20194;-85
2022/05/16 04:57:43;;;;;;;4.07;2.80;;;;;;;;;;5079867;28;20268;-86
2022/05/16 05:00:11;;;;;;;4.65;2.95;;;;;;;;;;5085275;28;20638;-86
2022/05/16 05:02:37;;;;;;;9.00;2.80;;;;;;;;;;5075280;28;20221;-86
2022/05/16 05:05:04;;;;;;;3.17;2.88;;;11.60;99.90;;;;;;5060715;28;20199;-87
2022/05/16 05:07:30;;;;;;;3.20;2.60;;;;;;;;;;5062118;28;20262;-85
2022/05/16 05:15:26;;;;;;;5.68;2.88;;;;;;;;;;5086640;28;20197;-86
2022/05/16 05:17:55;;;;;;;3.08;2.47;;;;;;;;;;5056478;28;20644;-87
2022/05/16 05:20:23;;;;;;;4.78;2.42;;;;;;;;;;5055605;28;20662;-87
2022/05/16 05:22:51;;;;;;;2.28;1.95;;;;;;;;;;5062721;28;20323;-88
2022/05/16 05:25:21;;;;;;;3.65;1.98;;;12.90;99.90;;;;;;5060477;28;20210;-88
2022/05/16 05:27:52;;;;;;;3.00;2.30;;;;;;;;;;5079490;28;20277;-86
2022/05/16 05:30:23;;;;;;;3.33;1.85;;;;;;;;;;5061609;28;20187;-89
2022/05/16 05:32:54;;;;;;;3.78;2.22;;;;;;;;;;5072630;28;20189;-87
2022/05/16 05:35:30;;;;;;;3.63;1.77;;;;;;;;;;5069240;28;20195;-87
2022/05/16 05:37:59;;;;;;;2.58;1.92;;;;;;;;;;5063648;28;20186;-88
2022/05/16 05:40:33;;;;;;;2.38;1.42;;;;;;;;;;5061221;28;20182;-88
2022/05/16 05:43:03;;;;;;;1.95;1.52;;;;;;;;;;5047746;28;20191;-89
2022/05/16 05:45:29;;;;;;;4.68;2.00;;;;;;;;;;5063446;28;20297;-88
2022/05/16 05:48:04;;;;;;;2.20;1.85;;;;;;;;;;5066351;28;20514;-89
2022/05/16 05:50:30;;;;;;;2.58;2.13;;;;;;;;;;5057626;28;20178;-90
2022/05/16 05:53:06;;;;;;;;;;;;;;;;;;;;;
2022/05/16 05:55:35;;;;;;;1.30;1.20;;;;;;;;;;5080514;28;20225;-90
2022/05/16 05:58:04;;;;;;;1.52;1.27;;;;;;;;;;5068663;28;20277;-89
2022/05/16 06:00:32;;;;;;;2.65;1.35;;;;;;;;;;5065788;28;20191;-90
2022/05/16 06:03:00;;;;;;;1.20;1.10;;;;;;;;;;5072179;28;20322;-90
2022/05/16 06:05:27;;;;;;;1.23;1.00;;;;;;;;;;5067225;28;20213;-90
2022/05/16 06:07:54;;;;;;;1.92;0.90;;;;;;;;;;5073841;28;20190;-91
2022/05/16 06:10:25;;;;;;;1.63;1.48;;;;;;;;;;5086858;28;20185;-90
2022/05/16 06:12:52;;;;;;;1.55;1.27;;;;;;;;;;5067291;28;20270;-88
2022/05/16 06:15:26;;;;;;;3.67;1.10;;;;;;;;;;5091826;28;20639;-88
2022/05/16 06:17:57;;;;;;;1.13;1.02;;;;;;;;;;5054033;28;20214;-88
2022/05/16 06:20:25;;;;;;;2.78;0.90;;;;;;;;;;5073736;28;20220;-90
2022/05/16 06:23:09;;;;;;;1.35;0.70;;;;;;;;;;5081496;28;20186;-89
2022/05/16 06:25:42;;;;;;;5.32;1.30;;;;;;;;;;5084274;28;20206;-87
2022/05/16 06:28:14;;;;;;;1.75;1.00;;;;;;;;;;5065610;28;20183;-90
2022/05/16 06:30:43;;;;;;;0.88;0.70;;;14.50;99.90;;;;;;5087636;28;20314;-90
2022/05/16 06:33:09;;;;;;;0.80;0.55;;;;;;;;;;5082677;28;20170;-90
2022/05/16 06:35:40;;;;;;;0.88;0.77;;;;;;;;;;5079489;28;20236;-89
2022/05/16 06:38:11;;;;;;;1.50;0.90;;;;;;;;;;5077562;28;20248;-89
2022/05/16 06:40:38;;;;;;;0.73;0.70;;;;;;;;;;5076193;28;20174;-90
2022/05/16 06:43:05;;;;;;;0.70;0.70;;;;;;;;;;5074132;28;20179;-88
2022/05/16 06:45:31;;;;;;;0.40;0.40;;;;;;;;;;5059041;28;20214;-88
2022/05/16 06:48:00;;;;;;;1.85;1.02;;;;;;;;;;5059825;28;20187;-89
2022/05/16 06:50:26;;;;;;;5.15;1.08;;;;;;;;;;5068802;28;20700;-91
2022/05/16 06:52:52;;;;;;;1.30;0.80;;;;;;;;;;5090464;28;20190;-90
2022/05/16 06:55:18;;;;;;;1.48;0.88;;;;;;;;;;5067036;28;20218;-91
2022/05/16 06:57:45;;;;;;;0.80;0.80;;;;;;;;;;5072290;28;20191;-92
2022/05/16 07:00:14;;;;;;;0.88;0.80;;;;;;;;;;5075966;28;20179;-92
2022/05/16 07:02:40;;;;;;;1.10;0.60;;;;;;;;;;5089837;28;20218;-89
2022/05/16 07:05:07;;;;;;;0.77;0.77;;;;;;;;;;5067490;28;20212;-91
2022/05/16 07:07:35;;;;;;;1.63;0.70;;;;;;;;;;5062752;28;20277;-90
2022/05/16 07:10:09;;;;;;;1.15;1.05;;;;;;;;;;5075804;28;20187;-90
2022/05/16 07:12:38;;;;;;;0.60;0.60;;;;;;;;;;5062288;28;20631;-92
2022/05/16 07:15:04;;;;;;;0.95;0.73;;;;;;;;;;5070193;28;20185;-90
2022/05/16 07:17:30;;;;;;;1.00;0.93;;;;;;;;;;5061738;28;20183;-90
2022/05/16 07:19:57;;;;;;;1.63;0.82;;;;;;;;;;5069629;28;20186;-89
2022/05/16 07:22:25;;;;;;;0.85;0.68;;;;;;;;;;5070898;28;20178;-92
2022/05/16 07:24:55;;;;;;;0.93;0.80;;;;;;;;;;5098623;28;20756;-91
2022/05/16 07:30:12;;;;;;;4.40;1.48;;;15.80;96.80;;;;;;5065892;28;20252;-91
2022/05/16 07:32:43;;;;;;;2.63;1.05;;;;;;;;;;5063336;28;20175;-90
2022/05/16 07:35:22;;;;;;;1.02;0.80;;;;;;;;;;5059324;28;20545;-89
2022/05/16 07:37:51;;;;;;;2.50;1.25;;;;;;;;;;5075350;28;20190;-92
2022/05/16 07:40:17;;;;;;;4.57;1.35;;;;;;;;;;5063137;28;20193;-93
2022/05/16 07:42:46;;;;;;;1.13;0.70;;;;;;;;;;5069876;28;20186;-89
2022/05/16 07:45:14;;;;;;;1.45;0.93;;;;;;;;;;5065990;28;20212;-91
2022/05/16 07:47:51;;;;;;;1.20;0.90;;;;;;;;;;5068716;28;20194;-89
2022/05/16 07:50:25;;;;;;;1.77;0.70;;;;;;;;;;5061310;28;20186;-91
2022/05/16 07:53:15;;;;;;;;;;;;;;;;;;;;;
2022/05/16 07:55:45;;;;;;;1.40;0.75;;;;;;;;;;5073653;28;20197;-89
2022/05/16 07:58:11;;;;;;;2.72;1.35;;;;;;;;;;5080865;28;20182;-90
2022/05/16 08:00:40;;;;;;;1.27;0.80;;;;;;;;;;5095295;28;20173;-90
2022/05/16 08:03:09;;;;;;;4.40;1.00;;;;;;;;;;5095141;28;20236;-90
2022/05/16 08:05:35;;;;;;;3.17;1.30;;;;;;;;;;5095230;28;20201;-88
2022/05/16 08:11:14;;;;;;;2.17;1.05;;;;;;;;;;5095896;28;20206;-91
2022/05/16 08:13:48;;;;;;;1.30;0.82;;;;;;;;;;5096047;28;20188;-89
2022/05/16 08:16:22;;;;;;;2.10;1.35;;;;;;;;;;5096056;28;20205;-91
2022/05/16 08:18:50;;;;;;;2.53;1.17;;;;;;;;;;5096326;28;20204;-90
2022/05/16 08:21:21;;;;;;;1.38;0.88;;;;;;;;;;5097629;28;20276;-91
2022/05/16 08:23:55;;;;;;;1.63;0.65;;;;;;;;;;5109492;28;20185;-91
2022/05/16 08:26:28;;;;;;;2.03;1.13;;;;;;;;;;5102460;28;20225;-90
2022/05/16 08:29:01;;;;;;;0.55;0.52;;;;;;;;;;5096214;28;20639;-91
2022/05/16 08:31:28;;;;;;;0.77;0.75;;;;;;;;;;5095991;28;20674;-91
2022/05/16 08:33:55;;;;;;;1.50;1.05;;;;;;;;;;5096179;28;20210;-90
2022/05/16 08:42:08;;;;;;;;;;;;;;;;;;;;;
2022/05/16 08:44:41;;;;;;;1.45;0.60;;;;;;;;;;5114002;28;20209;-92
2022/05/16 08:47:28;;;;;;;1.67;1.00;;;;;;;;;;5095930;28;20181;-90
2022/05/16 08:49:58;;;;;;;1.40;0.75;;;;;;;;;;5092994;28;20205;-91
2022/05/16 08:52:27;;;;;;;1.50;0.85;;;;;;;;;;5075337;28;20183;-91
2022/05/16 08:55:37;;;;;;;0.82;0.80;;;;;;;;;;5076214;28;20561;-92
2022/05/16 08:58:05;;;;;;;3.17;0.98;;;;;;;;;;4976000;28;20193;-90
2022/05/16 09:00:53;;;;;;;0.73;0.63;;;;;;;;;;5083154;28;20255;-90
2022/05/16 09:03:35;;;;;;;;;;;;;;;;;;;;;
2022/05/16 09:06:16;;;;;;;;;;;;;;;;;;;;;
2022/05/16 09:09:07;;;;;;;0.70;0.70;;;;;;;;;;5097293;28;20171;-93
2022/05/16 09:11:59;;;;;;;0.75;0.57;;;;;;;;;;5074651;28;20540;-91
2022/05/16 09:14:46;;;;;;;1.75;0.50;;;;;;;;;;5070216;28;20193;-90
2022/05/16 09:17:30;;;;;;;;;;;;;;;;;;;;;
2022/05/16 09:20:21;;;;;;;1.35;0.85;;;;;;;;;;5085827;28;20527;-90
2022/05/16 09:23:13;;;;;;;1.65;0.70;;;;;;;;;;5054855;28;20200;-89
2022/05/16 09:25:46;;;;;;;2.00;1.30;;;;;;;;;;5069888;28;20202;-89
2022/05/16 09:28:36;;;;;;;0.52;0.43;;;;;;;;;;5060618;28;20210;-93
2022/05/16 09:31:22;;;;;;;4.65;0.80;;;;;;;;;;5060317;28;20296;-92
2022/05/16 09:33:55;;;;;;;0.40;0.40;;;;;;;;;;5073095;28;20197;-92
2022/05/16 09:36:55;;;;;;;;;;;;;;;;;;;;;
2022/05/16 09:39:36;;;;;;;;;;;;;;;;;;;;;
2022/05/16 09:42:43;;;;;;;1.45;0.60;;;;;;;;;;5086759;28;20258;-92
2022/05/16 09:45:28;;;;;;;;;;;;;;;;;;;;;
2022/05/16 09:47:57;;;;;;;0.63;0.63;;;;;;;;;;5090730;28;20576;-91
2022/05/16 09:50:52;;;;;;;1.65;0.93;;;;;;;;;;5060734;28;20553;-92
2022/05/16 09:53:30;;;;;;;0.50;0.50;;;;;;;;;;5074201;28;20195;-90
2022/05/16 09:56:09;;;;;;;1.13;0.57;;;;;;;;;;5078941;28;20233;-92
2022/05/16 09:58:46;;;;;;;2.50;0.82;;;;;;;;;;5086051;28;20242;-90
2022/05/16 10:01:16;;;;;;;2.92;0.93;;;;;;;;;;5092132;28;20162;-92
2022/05/16 10:03:42;;;;;;;0.52;0.40;;;;;;;;;;5094544;28;20646;-90
2022/05/16 10:06:12;;;;;;;0.93;0.50;;;;;;;;;;5093972;28;20212;-90
2022/05/16 10:08:38;;;;;;;1.00;0.63;;;;;;;;;;5096968;28;20210;-88
2022/05/16 10:11:19;;;;;;;0.90;0.52;;;;;;;;;;5076780;28;20201;-88
2022/05/16 10:13:53;;;;;;;0.80;0.70;;;;;;;;;;5089710;28;20254;-88
2022/05/16 10:16:22;;;;;;;0.45;0.43;;;;;;;;;;5098417;28;20208;-89
2022/05/16 10:18:53;;;;;;;6.05;0.73;;;;;;;;;;5097719;28;20169;-88
2022/05/16 10:21:30;;;;;;;1.13;0.80;;;;;;;;;;5098112;28;20182;-87
2022/05/16 10:23:59;;;;;;;0.45;0.45;;;;;;;;;;5088907;28;20174;-89
2022/05/16 10:26:30;;;;;;;0.73;0.43;;;;;;;;;;5101360;28;20209;-89
2022/05/16 10:29:08;;;;;;;0.57;0.47;;;;;;;;;;5093708;28;20525;-89
2022/05/16 10:34:28;;;;;;;0.47;0.47;;;;;;;;;;5096035;28;20573;-90
2022/05/16 10:37:01;;;;;;;1.85;0.75;;;;;;;;;;5080091;28;20178;-90
2022/05/16 10:39:38;;;;;;;4.55;0.70;;;;;;;;;;5086546;28;20209;-89
2022/05/16 10:42:07;;;;;;;0.65;0.65;;;;;;;;;;5098138;28;20169;-88
2022/05/16 10:44:52;;;;;;;1.38;0.60;;;;;;;;;;5097926;28;20261;-89
2022/05/16 10:47:35;;;;;;;0.40;0.40;;;;;;;;;;5098478;28;20231;-89
2022/05/16 10:50:07;;;;;;;0.65;0.65;;;;;;;;;;5116090;28;20211;-88
2022/05/16 10:52:33;;;;;;;1.45;0.80;;;;;;;;;;5116213;28;20173;-90
2022/05/16 10:55:17;;;;;;;0.63;0.63;;;;;;;;;;5097756;28;20181;-88
2022/05/16 10:57:46;;;;;;;0.55;0.55;;;;;;;;;;5100713;28;20272;-91
2022/05/16 11:00:14;;;;;;;1.42;0.60;;;;;;;;;;5098799;28;20178;-88
2022/05/16 11:02:56;;;;;;;0.60;0.60;;;;;;;;;;5097895;28;20674;-90
2022/05/16 11:05:47;;;;;;;1.15;0.60;;;;;;;;;;5116106;28;20194;-90
2022/05/16 11:08:16;;;;;;;0.88;0.80;;;;;;;;;;5098246;28;20181;-89
2022/05/16 11:10:54;;;;;;;0.93;0.73;;;;;;;;;;5099102;28;20178;-87
2022/05/16 11:13:50;;;;;;;0.50;0.50;;;19.70;65.10;;;;;;5100164;28;20181;-88
2022/05/16 11:16:24;;;;;;;5.28;0.88;;;;;;;;;;5099095;28;20637;-91
2022/05/16 11:19:21;;;;;;;0.70;0.70;;;19.70;63.70;;;;;;5097464;28;20208;-90
2022/05/16 11:21:54;;;;;;;0.90;0.60;;;;;;;;;;5096777;28;20197;-90
2022/05/16 11:24:53;;;;;;;1.25;0.90;;;19.80;63.70;;;;;;5097063;28;20231;-88
2022/05/16 11:27:29;;;;;;;2.20;0.80;;;;;;;;;;5097899;28;20182;-92
2022/05/16 11:30:10;;;;;;;1.10;0.70;;;;;;;;;;5097579;28;20310;-90
2022/05/16 11:33:06;;;;;;;0.75;0.70;;;19.40;59.60;;;;;;5097453;28;20178;-91
2022/05/16 11:35:35;;;;;;;0.63;0.40;;;;;;;;;;5097021;28;20181;-90
2022/05/16 11:38:01;;;;;;;0.40;0.40;;;;;;;;;;5097357;28;20170;-87
2022/05/16 11:40:49;;;;;;;1.02;0.73;;;19.30;60.70;;;;;;5098231;28;20230;-88
2022/05/16 11:43:29;;;;;;;0.88;0.65;;;;;;;;;;5083428;28;20683;-88
2022/05/16 11:46:11;;;;;;;0.75;0.68;;;;;;;;;;5080072;28;20287;-89
2022/05/16 11:51:57;;;;;;;1.20;0.60;;;;;;;;;;5076580;28;20186;-90
2022/05/16 11:54:55;;;;;;;;;;;;;;;;;;;;;
2022/05/16 12:03:16;;;;;;;2.92;0.40;;;;;;;;;;5129155;28;20221;-90
2022/05/16 12:09:02;;;;;;;0.50;0.50;;;;;;;;;;5132679;28;20198;-93
2022/05/16 12:11:31;;;;;;;1.00;0.57;;;;;;;;;;5075731;28;20261;-90
2022/05/16 12:14:11;;;;;;;0.40;0.30;;;;;;;;;;5104991;28;20246;-92
2022/05/16 12:17:21;;;;;;;0.55;0.55;;;;;;;;;;5110121;28;20209;-90
2022/05/16 12:20:02;;;;;;;;;;;;;;;;;;;;;
2022/05/16 12:22:37;;;;;;;1.35;0.80;;;;;;;;;;5126046;28;20245;-88
2022/05/16 12:25:03;;;;;;;1.10;0.60;;;;;;;;;;5110765;28;20228;-89
2022/05/16 12:27:43;;;;;;;0.50;0.43;;;;;;;;;;5111766;28;20158;-90
2022/05/16 12:30:15;;;;;;;0.57;0.30;;;;;;;;;;5103639;28;20188;-92
2022/05/16 12:33:11;;;;;;;0.88;0.70;;;19.70;54.90;;;;;;5105052;27;20177;-92
2022/05/16 12:35:38;;;;;;;0.30;0.30;;;;;;;;;;5138868;27;20168;-90
2022/05/16 12:38:07;;;;;;;0.45;0.45;;;;;;;;;;5108779;28;20216;-91
2022/05/16 12:40:56;;;;;;;;;;;;;;;;;;;;;
2022/05/16 12:43:28;;;;;;;0.45;0.45;;;;;;;;;;5115298;28;20206;-90
2022/05/16 12:46:36;;;;;;;0.43;0.40;;;20.30;55.60;;;;;;5099391;28;20282;-91
2022/05/16 12:49:06;;;;;;;1.35;0.50;;;;;;;;;;5100097;28;20190;-90
2022/05/16 12:52:02;;;;;;;0.52;0.50;;;20.00;53.70;;;;;;5100685;28;20159;-90
2022/05/16 12:55:19;;;;;;;0.20;0.20;;;;;;;;;;5098500;28;20179;-92
2022/05/16 12:58:03;;;;;;;0.60;0.45;;;;;;;;;;5094662;28;20623;-90
2022/05/16 13:00:39;;;;;;;1.08;0.68;;;;;;;;;;5076934;28;20181;-89
2022/05/16 13:03:51;;;;;;;0.25;0.22;;;20.30;54.30;;;;;;5077415;28;20312;-91
2022/05/16 13:06:32;;;;;;;0.90;0.38;;;;;;;;;;5077517;28;20194;-90
2022/05/16 13:09:15;;;;;;;1.65;0.63;;;;;;;;;;5076083;28;20241;-90
2022/05/16 13:11:55;;;;;;;0.30;0.30;;;;;;;;;;5076499;28;20581;-88
2022/05/16 13:14:21;;;;;;;0.43;0.43;;;;;;;;;;5076478;28;20224;-89
2022/05/16 13:16:59;;;;;;;1.65;0.30;;;20.30;53.70;;;;;;5076409;28;20253;-89
2022/05/16 13:19:48;;;;;;;0.50;0.50;;;;;;;;;;5076104;28;20182;-89
2022/05/16 13:22:24;;;;;;;0.30;0.30;;;;;;;;;;5075886;28;20183;-88
2022/05/16 13:24:57;;;;;;;1.58;0.93;;;;;;;;;;5075789;28;20666;-88
2022/05/16 13:30:23;;;;;;;1.15;0.70;;;;;;;;;;5112719;28;20223;-91
2022/05/16 13:32:49;;;;;;;0.20;0.20;;;;;;;;;;5078847;28;20254;-90
2022/05/16 13:35:37;;;;;;;1.42;0.65;;;;;;;;;;5090366;28;20646;-89
2022/05/16 13:38:17;;;;;;;0.40;0.40;;;;;;;;;;5088421;28;20187;-90
2022/05/16 13:40:44;;;;;;;0.73;0.30;;;;;;;;;;5066956;28;20186;-90
2022/05/16 13:43:23;;;;;;;0.47;0.47;;;;;;;;;;5079308;28;20183;-89
2022/05/16 13:45:59;;;;;;;0.40;0.40;;;;;;;;;;5085671;28;20223;-88
2022/05/16 13:48:27;;;;;;;0.40;0.40;;;;;;;;;;5086841;28;20193;-89
2022/05/16 13:50:56;;;;;;;0.50;0.50;;;;;;;;;;5064496;28;20245;-88
2022/05/16 13:53:30;;;;;;;0.60;0.60;;;;;;;;;;5079532;28;20261;-90
2022/05/16 13:55:57;;;;;;;0.50;0.50;;;;;;;;;;5079884;28;20180;-90
2022/05/16 13:58:26;;;;;;;0.30;0.30;;;;;;;;;;5082567;28;20239;-89
2022/05/16 14:01:13;;;;;;;0.90;0.30;;;;;;;;;;5086081;28;20179;-89
2022/05/16 14:03:41;;;;;;;0.30;0.30;;;;;;;;;;5079816;28;20214;-89
2022/05/16 14:06:07;;;;;;;0.85;0.40;;;;;;;;;;5079750;28;20263;-89
2022/05/16 14:08:38;;;;;;;0.52;0.50;;;;;;;;;;5079094;28;20239;-88
2022/05/16 14:11:05;;;;;;;0.22;0.22;;;;;;;;;;5096805;28;20198;-86
2022/05/16 14:13:54;;;;;;;0.68;0.68;;;;;;;;;;5078897;28;20194;-89
2022/05/16 14:16:28;;;;;;;0.30;0.30;;;;;;;;;;5084352;28;20619;-88
2022/05/16 14:19:11;;;;;;;0.40;0.40;;;;;;;;;;5098563;28;20216;-88
2022/05/16 14:21:58;;;;;;;0.28;0.28;;;;;;;;;;5098741;28;20177;-88
2022/05/16 14:24:27;;;;;;;0.40;0.40;;;;;;;;;;5098194;28;20173;-89
2022/05/16 14:26:53;;;;;;;0.73;0.60;;;;;;;;;;5081318;28;20197;-87
2022/05/16 14:29:41;;;;;;;0.63;0.30;;;20.00;50.00;;;;;;5097944;28;20178;-88
2022/05/16 14:32:09;;;;;;;0.40;0.40;;;;;;;;;;5086856;28;20178;-90
2022/05/16 14:35:07;;;;;;;;;;;;;;;;;;;;;
2022/05/16 14:37:37;;;;;;;0.30;0.30;;;;;;;;;;5104210;28;20631;-89
2022/05/16 14:40:12;;;;;;;0.52;0.35;;;;;;;;;;5095779;28;20154;-89
2022/05/16 14:42:44;;;;;;;0.30;0.30;;;;;;;;;;5117271;28;20162;-89
2022/05/16 14:45:19;;;;;;;1.05;0.52;;;;;;;;;;5098439;28;20205;-89
2022/05/16 14:47:48;;;;;;;0.40;0.40;;;;;;;;;;5098184;28;20181;-88
2022/05/16 14:50:17;;;;;;;0.70;0.63;;;;;;;;;;5098433;28;20544;-88
2022/05/16 14:52:54;;;;;;;0.20;0.20;;;;;;;;;;5116579;28;20247;-89
2022/05/16 14:55:28;;;;;;;0.85;0.52;;;;;;;;;;5097562;28;20261;-88
2022/05/16 14:57:54;;;;;;;3.13;0.68;;;;;;;;;;5116578;28;20165;-87
2022/05/16 15:08:56;;;;;;;0.32;0.32;;;;;;;;;;5090325;28;20658;-93
2022/05/16 15:11:29;;;;;;;0.52;0.40;;;;;;;;;;5081115;28;20202;-89
2022/05/16 15:13:58;;;;;;;0.50;0.50;;;;;;;;;;5083212;28;20258;-90
2022/05/16 15:19:26;;;;;;;0.40;0.40;;;;;;;;;;5108697;28;20605;-92
2022/05/16 15:22:05;;;;;;;;;;;;;;;;;;;;;
2022/05/16 15:24:41;;;;;;;;;;;;;;;;;;;;;
2022/05/16 15:27:12;;;;;;;0.60;0.60;;;;;;;;;;5111575;28;20257;-92
2022/05/16 15:29:48;;;;;;;;;;;;;;;;;;;;;
2022/05/16 15:32:24;;;;;;;0.43;0.43;;;;;;;;;;5110448;28;20256;-90
2022/05/16 15:35:08;;;;;;;;;;;;;;;;;;;;;
2022/05/16 15:37:59;;;;;;;0.65;0.30;;;20.60;47.50;;;;;;5097865;28;20177;-90
2022/05/16 15:40:36;;;;;;;0.47;0.45;;;;;;;;;;5057095;28;20224;-90
2022/05/16 15:43:13;;;;;;;0.52;0.50;;;;;;;;;;5089109;28;20249;-90
2022/05/16 15:45:57;;;;;;;1.77;0.50;;;20.90;47.50;;;;;;5085729;28;20532;-89
2022/05/16 15:48:26;;;;;;;0.38;0.38;;;;;;;;;;5078987;28;20186;-89
2022/05/16 15:51:12;;;;;;;1.35;1.17;;;;;;;;;;5075929;28;20174;-92
2022/05/16 15:53:41;;;;;;;0.57;0.57;;;;;;;;;;5075813;28;20231;-90
2022/05/16 15:56:20;;;;;;;;;;;;;;;;;;;;;
2022/05/16 15:58:49;;;;;;;0.55;0.50;;;;;;;;;;5077217;28;20158;-90
2022/05/16 16:01:18;;;;;;;1.55;0.98;;;;;;;;;;5077821;28;20174;-92
2022/05/16 16:09:16;;;;;;;6.40;3.47;;;;;;;;;;5094023;28;20237;-92